Aviation Digital Data Service (ADDS)

Output produced by METARs form (1803 UTC 26 September 2017)
found at http://aviationweather.gov/adds/metars/
 
UUWW 261730Z 35002MPS CAVOK 07/04 Q1039 R06/000070 NOSIG